sensor_id;sensor_type;location;lat;lon;timestamp;P1;durP1;ratioP1;P2;durP2;ratioP2
59468;SDS011;45277;52.768;18.262;2023-09-30T00:00:09;10.40;;;7.57;;
59468;SDS011;45277;52.768;18.262;2023-09-30T00:02:01;14.13;;;8.30;;
59468;SDS011;45277;52.768;18.262;2023-09-30T00:03:34;13.98;;;7.82;;
59468;SDS011;45277;52.768;18.262;2023-09-30T00:05:05;11.80;;;7.97;;
59468;SDS011;45277;52.768;18.262;2023-09-30T00:06:37;11.10;;;8.25;;
59468;SDS011;45277;52.768;18.262;2023-09-30T00:08:09;14.52;;;7.93;;
59468;SDS011;45277;52.768;18.262;2023-09-30T00:09:40;13.73;;;7.90;;
59468;SDS011;45277;52.768;18.262;2023-09-30T00:11:11;12.07;;;8.32;;
59468;SDS011;45277;52.768;18.262;2023-09-30T00:12:47;13.50;;;7.95;;
59468;SDS011;45277;52.768;18.262;2023-09-30T00:14:19;13.50;;;8.20;;
59468;SDS011;45277;52.768;18.262;2023-09-30T00:15:50;12.52;;;7.65;;
59468;SDS011;45277;52.768;18.262;2023-09-30T00:17:22;13.80;;;8.18;;
59468;SDS011;45277;52.768;18.262;2023-09-30T00:18:53;12.32;;;8.18;;
59468;SDS011;45277;52.768;18.262;2023-09-30T00:20:24;16.60;;;8.25;;
59468;SDS011;45277;52.768;18.262;2023-09-30T00:21:56;11.23;;;8.25;;
59468;SDS011;45277;52.768;18.262;2023-09-30T00:23:27;13.85;;;7.35;;
59468;SDS011;45277;52.768;18.262;2023-09-30T00:24:59;11.48;;;7.72;;
59468;SDS011;45277;52.768;18.262;2023-09-30T00:26:31;12.15;;;8.35;;
59468;SDS011;45277;52.768;18.262;2023-09-30T00:28:02;12.80;;;7.22;;
59468;SDS011;45277;52.768;18.262;2023-09-30T00:29:34;12.95;;;7.80;;
59468;SDS011;45277;52.768;18.262;2023-09-30T00:31:07;10.88;;;8.20;;
59468;SDS011;45277;52.768;18.262;2023-09-30T00:32:41;11.25;;;7.97;;
59468;SDS011;45277;52.768;18.262;2023-09-30T00:34:13;11.32;;;8.43;;
59468;SDS011;45277;52.768;18.262;2023-09-30T00:35:45;12.15;;;7.82;;
59468;SDS011;45277;52.768;18.262;2023-09-30T00:37:16;16.67;;;8.45;;
59468;SDS011;45277;52.768;18.262;2023-09-30T00:38:47;13.73;;;7.72;;
59468;SDS011;45277;52.768;18.262;2023-09-30T00:40:19;12.07;;;8.40;;
59468;SDS011;45277;52.768;18.262;2023-09-30T00:41:50;11.85;;;7.63;;
59468;SDS011;45277;52.768;18.262;2023-09-30T00:43:22;12.57;;;8.23;;
59468;SDS011;45277;52.768;18.262;2023-09-30T00:44:53;11.48;;;8.10;;
59468;SDS011;45277;52.768;18.262;2023-09-30T00:46:26;12.23;;;7.78;;
59468;SDS011;45277;52.768;18.262;2023-09-30T00:48:05;13.80;;;8.02;;
59468;SDS011;45277;52.768;18.262;2023-09-30T00:49:37;11.15;;;7.97;;
59468;SDS011;45277;52.768;18.262;2023-09-30T00:51:08;10.65;;;7.70;;
59468;SDS011;45277;52.768;18.262;2023-09-30T00:52:40;11.60;;;7.65;;
59468;SDS011;45277;52.768;18.262;2023-09-30T00:54:13;12.77;;;7.45;;
59468;SDS011;45277;52.768;18.262;2023-09-30T00:55:44;11.93;;;7.55;;
59468;SDS011;45277;52.768;18.262;2023-09-30T00:57:16;15.00;;;7.72;;
59468;SDS011;45277;52.768;18.262;2023-09-30T00:58:50;14.07;;;7.97;;
59468;SDS011;45277;52.768;18.262;2023-09-30T01:00:22;11.13;;;7.18;;
59468;SDS011;45277;52.768;18.262;2023-09-30T01:01:56;10.82;;;6.90;;
59468;SDS011;45277;52.768;18.262;2023-09-30T01:03:29;12.10;;;8.13;;
59468;SDS011;45277;52.768;18.262;2023-09-30T01:05:01;11.65;;;7.50;;
59468;SDS011;45277;52.768;18.262;2023-09-30T01:06:33;15.57;;;8.15;;
59468;SDS011;45277;52.768;18.262;2023-09-30T01:08:04;12.25;;;7.55;;
59468;SDS011;45277;52.768;18.262;2023-09-30T01:09:36;11.30;;;7.88;;
59468;SDS011;45277;52.768;18.262;2023-09-30T01:11:07;11.00;;;7.07;;
59468;SDS011;45277;52.768;18.262;2023-09-30T01:12:40;17.17;;;6.88;;
59468;SDS011;45277;52.768;18.262;2023-09-30T01:16:09;10.43;;;6.00;;
59468;SDS011;45277;52.768;18.262;2023-09-30T01:17:41;6.47;;;5.18;;
59468;SDS011;45277;52.768;18.262;2023-09-30T01:19:12;11.25;;;7.13;;
59468;SDS011;45277;52.768;18.262;2023-09-30T01:20:43;10.73;;;6.57;;
59468;SDS011;45277;52.768;18.262;2023-09-30T01:22:15;10.52;;;6.70;;
59468;SDS011;45277;52.768;18.262;2023-09-30T01:23:46;17.58;;;7.57;;
59468;SDS011;45277;52.768;18.262;2023-09-30T01:25:18;9.10;;;7.07;;
59468;SDS011;45277;52.768;18.262;2023-09-30T01:26:49;9.88;;;7.30;;
59468;SDS011;45277;52.768;18.262;2023-09-30T01:28:21;14.02;;;7.25;;
59468;SDS011;45277;52.768;18.262;2023-09-30T01:29:53;11.90;;;7.32;;
59468;SDS011;45277;52.768;18.262;2023-09-30T01:31:25;12.80;;;7.70;;
59468;SDS011;45277;52.768;18.262;2023-09-30T01:32:57;11.55;;;7.25;;
59468;SDS011;45277;52.768;18.262;2023-09-30T01:34:28;11.15;;;7.70;;
59468;SDS011;45277;52.768;18.262;2023-09-30T01:36:00;15.48;;;6.85;;
59468;SDS011;45277;52.768;18.262;2023-09-30T01:37:31;16.55;;;6.97;;
59468;SDS011;45277;52.768;18.262;2023-09-30T01:39:03;13.55;;;7.55;;
59468;SDS011;45277;52.768;18.262;2023-09-30T01:40:34;13.93;;;8.40;;
59468;SDS011;45277;52.768;18.262;2023-09-30T01:42:07;10.18;;;7.50;;
59468;SDS011;45277;52.768;18.262;2023-09-30T01:43:39;12.77;;;8.60;;
59468;SDS011;45277;52.768;18.262;2023-09-30T01:45:10;14.68;;;8.48;;
59468;SDS011;45277;52.768;18.262;2023-09-30T01:46:41;11.05;;;7.93;;
59468;SDS011;45277;52.768;18.262;2023-09-30T01:48:13;10.88;;;8.07;;
59468;SDS011;45277;52.768;18.262;2023-09-30T01:49:45;11.55;;;8.57;;
59468;SDS011;45277;52.768;18.262;2023-09-30T01:51:16;16.08;;;8.45;;
59468;SDS011;45277;52.768;18.262;2023-09-30T01:52:48;13.10;;;8.50;;
59468;SDS011;45277;52.768;18.262;2023-09-30T01:54:19;11.65;;;7.78;;
59468;SDS011;45277;52.768;18.262;2023-09-30T01:55:51;10.93;;;7.88;;
59468;SDS011;45277;52.768;18.262;2023-09-30T01:57:22;10.98;;;8.40;;
59468;SDS011;45277;52.768;18.262;2023-09-30T01:58:54;16.15;;;9.10;;
59468;SDS011;45277;52.768;18.262;2023-09-30T02:00:25;11.40;;;7.28;;
59468;SDS011;45277;52.768;18.262;2023-09-30T02:01:58;11.35;;;7.60;;
59468;SDS011;45277;52.768;18.262;2023-09-30T02:03:30;12.48;;;9.10;;
59468;SDS011;45277;52.768;18.262;2023-09-30T02:05:01;10.93;;;8.30;;
59468;SDS011;45277;52.768;18.262;2023-09-30T02:06:33;13.10;;;8.60;;
59468;SDS011;45277;52.768;18.262;2023-09-30T02:08:05;14.02;;;9.27;;
59468;SDS011;45277;52.768;18.262;2023-09-30T02:09:36;13.15;;;8.88;;
59468;SDS011;45277;52.768;18.262;2023-09-30T02:11:07;13.18;;;8.95;;
59468;SDS011;45277;52.768;18.262;2023-09-30T02:12:39;12.38;;;8.95;;
59468;SDS011;45277;52.768;18.262;2023-09-30T02:14:10;11.85;;;8.55;;
59468;SDS011;45277;52.768;18.262;2023-09-30T02:15:42;13.15;;;8.88;;
59468;SDS011;45277;52.768;18.262;2023-09-30T02:17:14;12.55;;;8.95;;
59468;SDS011;45277;52.768;18.262;2023-09-30T02:18:45;12.82;;;9.18;;
59468;SDS011;45277;52.768;18.262;2023-09-30T02:20:16;12.25;;;9.23;;
59468;SDS011;45277;52.768;18.262;2023-09-30T02:21:50;13.90;;;9.48;;
59468;SDS011;45277;52.768;18.262;2023-09-30T02:23:21;16.85;;;9.75;;
59468;SDS011;45277;52.768;18.262;2023-09-30T02:24:53;14.63;;;9.40;;
59468;SDS011;45277;52.768;18.262;2023-09-30T02:26:25;13.23;;;8.55;;
59468;SDS011;45277;52.768;18.262;2023-09-30T02:27:58;14.98;;;9.48;;
59468;SDS011;45277;52.768;18.262;2023-09-30T02:29:29;13.00;;;9.13;;
59468;SDS011;45277;52.768;18.262;2023-09-30T02:31:02;13.48;;;9.23;;
59468;SDS011;45277;52.768;18.262;2023-09-30T02:32:33;16.20;;;9.60;;
59468;SDS011;45277;52.768;18.262;2023-09-30T02:34:04;13.23;;;9.75;;
59468;SDS011;45277;52.768;18.262;2023-09-30T02:35:36;15.05;;;9.15;;
59468;SDS011;45277;52.768;18.262;2023-09-30T02:37:09;13.57;;;9.55;;
59468;SDS011;45277;52.768;18.262;2023-09-30T02:38:41;15.35;;;9.35;;
59468;SDS011;45277;52.768;18.262;2023-09-30T02:40:14;13.30;;;9.35;;
59468;SDS011;45277;52.768;18.262;2023-09-30T02:41:47;13.05;;;9.32;;
59468;SDS011;45277;52.768;18.262;2023-09-30T02:43:20;11.73;;;9.60;;
59468;SDS011;45277;52.768;18.262;2023-09-30T02:44:52;14.52;;;9.57;;
59468;SDS011;45277;52.768;18.262;2023-09-30T02:46:23;15.27;;;10.07;;
59468;SDS011;45277;52.768;18.262;2023-09-30T02:47:56;13.65;;;9.50;;
59468;SDS011;45277;52.768;18.262;2023-09-30T02:49:28;17.48;;;10.45;;
59468;SDS011;45277;52.768;18.262;2023-09-30T02:51:03;13.20;;;9.57;;
59468;SDS011;45277;52.768;18.262;2023-09-30T02:52:34;15.25;;;10.05;;
59468;SDS011;45277;52.768;18.262;2023-09-30T02:54:07;13.98;;;9.98;;
59468;SDS011;45277;52.768;18.262;2023-09-30T02:55:41;11.82;;;8.75;;
59468;SDS011;45277;52.768;18.262;2023-09-30T02:57:12;12.65;;;9.07;;
59468;SDS011;45277;52.768;18.262;2023-09-30T02:58:45;13.07;;;9.15;;
59468;SDS011;45277;52.768;18.262;2023-09-30T03:00:17;12.95;;;9.60;;
59468;SDS011;45277;52.768;18.262;2023-09-30T03:01:54;14.95;;;10.48;;
59468;SDS011;45277;52.768;18.262;2023-09-30T03:03:27;16.17;;;10.13;;
59468;SDS011;45277;52.768;18.262;2023-09-30T03:04:58;15.30;;;9.85;;
59468;SDS011;45277;52.768;18.262;2023-09-30T03:06:29;13.77;;;9.60;;
59468;SDS011;45277;52.768;18.262;2023-09-30T03:08:01;14.23;;;9.93;;
59468;SDS011;45277;52.768;18.262;2023-09-30T03:09:35;15.63;;;10.52;;
59468;SDS011;45277;52.768;18.262;2023-09-30T03:11:06;13.75;;;9.35;;
59468;SDS011;45277;52.768;18.262;2023-09-30T03:12:38;13.80;;;10.55;;
59468;SDS011;45277;52.768;18.262;2023-09-30T03:14:10;15.82;;;11.00;;
59468;SDS011;45277;52.768;18.262;2023-09-30T03:15:41;13.95;;;9.23;;
59468;SDS011;45277;52.768;18.262;2023-09-30T03:17:13;14.55;;;10.18;;
59468;SDS011;45277;52.768;18.262;2023-09-30T03:18:44;16.95;;;10.30;;
59468;SDS011;45277;52.768;18.262;2023-09-30T03:20:16;16.27;;;10.30;;
59468;SDS011;45277;52.768;18.262;2023-09-30T03:21:50;16.85;;;10.32;;
59468;SDS011;45277;52.768;18.262;2023-09-30T03:23:22;15.15;;;9.95;;
59468;SDS011;45277;52.768;18.262;2023-09-30T03:24:59;15.10;;;10.00;;
59468;SDS011;45277;52.768;18.262;2023-09-30T03:26:31;14.68;;;9.70;;
59468;SDS011;45277;52.768;18.262;2023-09-30T03:28:03;15.18;;;9.90;;
59468;SDS011;45277;52.768;18.262;2023-09-30T03:29:36;15.13;;;10.48;;
59468;SDS011;45277;52.768;18.262;2023-09-30T03:31:09;14.93;;;10.57;;
59468;SDS011;45277;52.768;18.262;2023-09-30T03:32:41;13.00;;;9.52;;
59468;SDS011;45277;52.768;18.262;2023-09-30T03:34:13;12.50;;;9.93;;
59468;SDS011;45277;52.768;18.262;2023-09-30T03:35:47;18.17;;;10.70;;
59468;SDS011;45277;52.768;18.262;2023-09-30T03:37:18;13.10;;;9.63;;
59468;SDS011;45277;52.768;18.262;2023-09-30T03:38:50;12.35;;;9.35;;
59468;SDS011;45277;52.768;18.262;2023-09-30T03:40:29;12.50;;;8.75;;
59468;SDS011;45277;52.768;18.262;2023-09-30T03:42:04;13.02;;;9.52;;
59468;SDS011;45277;52.768;18.262;2023-09-30T03:43:35;15.80;;;9.57;;
59468;SDS011;45277;52.768;18.262;2023-09-30T03:45:11;16.70;;;9.77;;
59468;SDS011;45277;52.768;18.262;2023-09-30T03:46:44;15.95;;;8.75;;
59468;SDS011;45277;52.768;18.262;2023-09-30T03:48:15;12.75;;;8.77;;
59468;SDS011;45277;52.768;18.262;2023-09-30T03:49:49;13.70;;;9.68;;
59468;SDS011;45277;52.768;18.262;2023-09-30T03:51:20;16.25;;;8.57;;
59468;SDS011;45277;52.768;18.262;2023-09-30T03:53:04;12.90;;;8.63;;
59468;SDS011;45277;52.768;18.262;2023-09-30T03:54:38;12.75;;;9.02;;
59468;SDS011;45277;52.768;18.262;2023-09-30T03:56:12;12.35;;;8.38;;
59468;SDS011;45277;52.768;18.262;2023-09-30T03:57:43;12.23;;;8.38;;
59468;SDS011;45277;52.768;18.262;2023-09-30T03:59:18;10.10;;;7.93;;
59468;SDS011;45277;52.768;18.262;2023-09-30T04:00:50;12.20;;;8.90;;
59468;SDS011;45277;52.768;18.262;2023-09-30T04:02:22;12.15;;;8.73;;
59468;SDS011;45277;52.768;18.262;2023-09-30T04:03:54;13.55;;;9.63;;
59468;SDS011;45277;52.768;18.262;2023-09-30T04:05:26;11.95;;;8.10;;
59468;SDS011;45277;52.768;18.262;2023-09-30T04:07:00;15.93;;;8.77;;
59468;SDS011;45277;52.768;18.262;2023-09-30T04:08:32;13.80;;;7.22;;
59468;SDS011;45277;52.768;18.262;2023-09-30T04:10:04;15.32;;;9.23;;
59468;SDS011;45277;52.768;18.262;2023-09-30T04:11:36;13.05;;;8.70;;
59468;SDS011;45277;52.768;18.262;2023-09-30T04:13:08;11.98;;;8.38;;
59468;SDS011;45277;52.768;18.262;2023-09-30T04:14:39;14.40;;;9.38;;
59468;SDS011;45277;52.768;18.262;2023-09-30T04:16:10;11.40;;;8.20;;
59468;SDS011;45277;52.768;18.262;2023-09-30T04:17:42;8.23;;;6.60;;
59468;SDS011;45277;52.768;18.262;2023-09-30T04:19:13;10.35;;;8.10;;
59468;SDS011;45277;52.768;18.262;2023-09-30T04:20:45;11.23;;;8.60;;
59468;SDS011;45277;52.768;18.262;2023-09-30T04:22:18;11.77;;;8.50;;
59468;SDS011;45277;52.768;18.262;2023-09-30T04:23:49;10.30;;;8.00;;
59468;SDS011;45277;52.768;18.262;2023-09-30T04:25:21;10.02;;;7.38;;
59468;SDS011;45277;52.768;18.262;2023-09-30T04:26:52;9.88;;;7.07;;
59468;SDS011;45277;52.768;18.262;2023-09-30T04:28:27;11.73;;;8.27;;
59468;SDS011;45277;52.768;18.262;2023-09-30T04:29:59;11.18;;;8.02;;
59468;SDS011;45277;52.768;18.262;2023-09-30T04:31:31;13.73;;;8.23;;
59468;SDS011;45277;52.768;18.262;2023-09-30T04:33:02;10.80;;;8.18;;
59468;SDS011;45277;52.768;18.262;2023-09-30T04:34:38;10.98;;;8.00;;
59468;SDS011;45277;52.768;18.262;2023-09-30T04:36:10;12.18;;;8.07;;
59468;SDS011;45277;52.768;18.262;2023-09-30T04:37:41;11.38;;;7.82;;
59468;SDS011;45277;52.768;18.262;2023-09-30T04:39:14;9.77;;;7.38;;
59468;SDS011;45277;52.768;18.262;2023-09-30T04:40:46;13.85;;;7.72;;
59468;SDS011;45277;52.768;18.262;2023-09-30T04:42:21;12.43;;;8.43;;
59468;SDS011;45277;52.768;18.262;2023-09-30T04:43:55;11.95;;;8.80;;
59468;SDS011;45277;52.768;18.262;2023-09-30T04:45:27;18.40;;;8.30;;
59468;SDS011;45277;52.768;18.262;2023-09-30T04:46:58;10.25;;;7.60;;
59468;SDS011;45277;52.768;18.262;2023-09-30T04:48:31;11.63;;;8.15;;
59468;SDS011;45277;52.768;18.262;2023-09-30T04:50:03;13.15;;;7.60;;
59468;SDS011;45277;52.768;18.262;2023-09-30T04:51:38;10.18;;;7.57;;
59468;SDS011;45277;52.768;18.262;2023-09-30T04:53:10;10.02;;;7.55;;
59468;SDS011;45277;52.768;18.262;2023-09-30T04:54:43;12.55;;;7.88;;
59468;SDS011;45277;52.768;18.262;2023-09-30T04:56:16;10.63;;;8.13;;
59468;SDS011;45277;52.768;18.262;2023-09-30T04:57:47;8.73;;;6.57;;
59468;SDS011;45277;52.768;18.262;2023-09-30T04:59:19;12.18;;;6.97;;
59468;SDS011;45277;52.768;18.262;2023-09-30T05:00:51;8.73;;;6.50;;
59468;SDS011;45277;52.768;18.262;2023-09-30T05:02:22;9.63;;;6.35;;
59468;SDS011;45277;52.768;18.262;2023-09-30T05:03:55;9.45;;;3.95;;
59468;SDS011;45277;52.768;18.262;2023-09-30T05:05:26;3.78;;;2.97;;
59468;SDS011;45277;52.768;18.262;2023-09-30T05:06:59;4.57;;;2.45;;
59468;SDS011;45277;52.768;18.262;2023-09-30T05:08:30;2.28;;;1.90;;
59468;SDS011;45277;52.768;18.262;2023-09-30T05:10:02;4.40;;;2.42;;
59468;SDS011;45277;52.768;18.262;2023-09-30T05:11:40;4.25;;;2.63;;
59468;SDS011;45277;52.768;18.262;2023-09-30T05:13:12;5.95;;;3.17;;
59468;SDS011;45277;52.768;18.262;2023-09-30T05:14:43;6.57;;;2.65;;
59468;SDS011;45277;52.768;18.262;2023-09-30T05:16:15;5.57;;;2.47;;
59468;SDS011;45277;52.768;18.262;2023-09-30T05:17:47;4.55;;;2.20;;
59468;SDS011;45277;52.768;18.262;2023-09-30T05:19:19;1.52;;;1.38;;
59468;SDS011;45277;52.768;18.262;2023-09-30T05:20:51;4.75;;;1.85;;
59468;SDS011;45277;52.768;18.262;2023-09-30T05:22:23;2.30;;;1.88;;
59468;SDS011;45277;52.768;18.262;2023-09-30T05:23:55;5.03;;;1.98;;
59468;SDS011;45277;52.768;18.262;2023-09-30T05:25:27;1.63;;;1.52;;
59468;SDS011;45277;52.768;18.262;2023-09-30T05:26:59;3.10;;;1.83;;
59468;SDS011;45277;52.768;18.262;2023-09-30T05:28:30;2.70;;;1.60;;
59468;SDS011;45277;52.768;18.262;2023-09-30T05:30:02;2.03;;;1.83;;
59468;SDS011;45277;52.768;18.262;2023-09-30T05:31:34;3.40;;;1.60;;
59468;SDS011;45277;52.768;18.262;2023-09-30T05:33:06;3.47;;;1.70;;
59468;SDS011;45277;52.768;18.262;2023-09-30T05:34:37;2.35;;;1.20;;
59468;SDS011;45277;52.768;18.262;2023-09-30T05:36:10;5.82;;;1.80;;
59468;SDS011;45277;52.768;18.262;2023-09-30T05:37:43;2.22;;;1.70;;
59468;SDS011;45277;52.768;18.262;2023-09-30T05:39:17;3.28;;;1.60;;
59468;SDS011;45277;52.768;18.262;2023-09-30T05:40:50;3.42;;;1.75;;
59468;SDS011;45277;52.768;18.262;2023-09-30T05:42:22;3.40;;;1.58;;
59468;SDS011;45277;52.768;18.262;2023-09-30T05:43:53;4.25;;;1.98;;
59468;SDS011;45277;52.768;18.262;2023-09-30T05:45:26;1.92;;;1.70;;
59468;SDS011;45277;52.768;18.262;2023-09-30T05:46:59;1.75;;;1.48;;
59468;SDS011;45277;52.768;18.262;2023-09-30T05:48:30;1.70;;;1.30;;
59468;SDS011;45277;52.768;18.262;2023-09-30T05:50:02;4.07;;;2.03;;
59468;SDS011;45277;52.768;18.262;2023-09-30T05:51:37;2.13;;;1.50;;
59468;SDS011;45277;52.768;18.262;2023-09-30T05:53:08;2.30;;;1.75;;
59468;SDS011;45277;52.768;18.262;2023-09-30T05:54:41;3.97;;;1.85;;
59468;SDS011;45277;52.768;18.262;2023-09-30T05:56:13;2.35;;;1.70;;
59468;SDS011;45277;52.768;18.262;2023-09-30T05:57:46;1.42;;;1.08;;
59468;SDS011;45277;52.768;18.262;2023-09-30T05:59:19;2.90;;;1.50;;
59468;SDS011;45277;52.768;18.262;2023-09-30T06:00:51;2.53;;;1.48;;
59468;SDS011;45277;52.768;18.262;2023-09-30T06:02:23;2.80;;;1.40;;
59468;SDS011;45277;52.768;18.262;2023-09-30T06:03:56;4.50;;;2.25;;
59468;SDS011;45277;52.768;18.262;2023-09-30T06:05:27;2.58;;;1.98;;
59468;SDS011;45277;52.768;18.262;2023-09-30T06:07:00;6.07;;;1.90;;
59468;SDS011;45277;52.768;18.262;2023-09-30T06:08:33;1.65;;;1.55;;
59468;SDS011;45277;52.768;18.262;2023-09-30T06:10:04;2.95;;;1.88;;
59468;SDS011;45277;52.768;18.262;2023-09-30T06:11:36;3.70;;;2.15;;
59468;SDS011;45277;52.768;18.262;2023-09-30T06:13:08;3.38;;;1.80;;
59468;SDS011;45277;52.768;18.262;2023-09-30T06:14:40;4.07;;;1.83;;
59468;SDS011;45277;52.768;18.262;2023-09-30T06:16:12;3.10;;;1.92;;
59468;SDS011;45277;52.768;18.262;2023-09-30T06:17:44;3.20;;;1.73;;
59468;SDS011;45277;52.768;18.262;2023-09-30T06:19:16;4.90;;;1.70;;
59468;SDS011;45277;52.768;18.262;2023-09-30T06:20:48;3.45;;;2.03;;
59468;SDS011;45277;52.768;18.262;2023-09-30T06:22:20;10.88;;;2.20;;
59468;SDS011;45277;52.768;18.262;2023-09-30T06:23:52;4.00;;;1.90;;
59468;SDS011;45277;52.768;18.262;2023-09-30T06:25:23;3.65;;;2.00;;
59468;SDS011;45277;52.768;18.262;2023-09-30T06:26:56;3.97;;;2.20;;
59468;SDS011;45277;52.768;18.262;2023-09-30T06:28:27;1.60;;;1.45;;
59468;SDS011;45277;52.768;18.262;2023-09-30T06:30:01;2.83;;;1.35;;
59468;SDS011;45277;52.768;18.262;2023-09-30T06:31:33;2.80;;;1.65;;
59468;SDS011;45277;52.768;18.262;2023-09-30T06:33:05;5.95;;;1.90;;
59468;SDS011;45277;52.768;18.262;2023-09-30T06:34:37;4.82;;;2.03;;
59468;SDS011;45277;52.768;18.262;2023-09-30T06:36:09;5.38;;;2.15;;
59468;SDS011;45277;52.768;18.262;2023-09-30T06:37:41;4.57;;;1.77;;
59468;SDS011;45277;52.768;18.262;2023-09-30T06:39:15;3.75;;;1.63;;
59468;SDS011;45277;52.768;18.262;2023-09-30T06:40:47;3.60;;;1.50;;
59468;SDS011;45277;52.768;18.262;2023-09-30T06:42:18;7.18;;;1.65;;
59468;SDS011;45277;52.768;18.262;2023-09-30T06:43:50;2.70;;;1.38;;
59468;SDS011;45277;52.768;18.262;2023-09-30T06:45:22;4.90;;;1.88;;
59468;SDS011;45277;52.768;18.262;2023-09-30T06:46:54;1.85;;;1.50;;
59468;SDS011;45277;52.768;18.262;2023-09-30T06:48:25;7.30;;;2.22;;
59468;SDS011;45277;52.768;18.262;2023-09-30T06:49:57;3.88;;;1.73;;
59468;SDS011;45277;52.768;18.262;2023-09-30T06:51:29;5.47;;;1.95;;
59468;SDS011;45277;52.768;18.262;2023-09-30T06:53:00;4.18;;;1.70;;
59468;SDS011;45277;52.768;18.262;2023-09-30T06:54:32;1.85;;;1.35;;
59468;SDS011;45277;52.768;18.262;2023-09-30T06:56:06;1.73;;;1.50;;
59468;SDS011;45277;52.768;18.262;2023-09-30T06:57:39;4.60;;;2.10;;
59468;SDS011;45277;52.768;18.262;2023-09-30T06:59:14;3.03;;;1.63;;
59468;SDS011;45277;52.768;18.262;2023-09-30T07:00:45;4.47;;;2.10;;
59468;SDS011;45277;52.768;18.262;2023-09-30T07:02:16;4.07;;;1.98;;
59468;SDS011;45277;52.768;18.262;2023-09-30T07:03:48;3.38;;;1.40;;
59468;SDS011;45277;52.768;18.262;2023-09-30T07:05:19;6.63;;;2.35;;
59468;SDS011;45277;52.768;18.262;2023-09-30T07:06:52;3.45;;;1.75;;
59468;SDS011;45277;52.768;18.262;2023-09-30T07:08:24;3.60;;;1.52;;
59468;SDS011;45277;52.768;18.262;2023-09-30T07:09:56;2.40;;;1.50;;
59468;SDS011;45277;52.768;18.262;2023-09-30T07:11:29;6.25;;;2.20;;
59468;SDS011;45277;52.768;18.262;2023-09-30T07:13:03;8.40;;;2.60;;
59468;SDS011;45277;52.768;18.262;2023-09-30T07:14:37;2.90;;;1.80;;
59468;SDS011;45277;52.768;18.262;2023-09-30T07:16:08;4.75;;;1.77;;
59468;SDS011;45277;52.768;18.262;2023-09-30T07:17:41;4.75;;;1.98;;
59468;SDS011;45277;52.768;18.262;2023-09-30T07:19:14;3.67;;;2.13;;
59468;SDS011;45277;52.768;18.262;2023-09-30T07:20:45;2.20;;;1.58;;
59468;SDS011;45277;52.768;18.262;2023-09-30T07:22:17;4.80;;;1.85;;
59468;SDS011;45277;52.768;18.262;2023-09-30T07:23:49;4.07;;;1.85;;
59468;SDS011;45277;52.768;18.262;2023-09-30T07:25:21;2.15;;;1.42;;
59468;SDS011;45277;52.768;18.262;2023-09-30T07:26:53;2.13;;;1.67;;
59468;SDS011;45277;52.768;18.262;2023-09-30T07:28:25;4.53;;;1.70;;
59468;SDS011;45277;52.768;18.262;2023-09-30T07:29:57;5.38;;;1.85;;
59468;SDS011;45277;52.768;18.262;2023-09-30T07:31:32;2.13;;;1.75;;
59468;SDS011;45277;52.768;18.262;2023-09-30T07:33:05;4.80;;;1.88;;
59468;SDS011;45277;52.768;18.262;2023-09-30T07:34:37;6.30;;;2.20;;
59468;SDS011;45277;52.768;18.262;2023-09-30T07:36:09;3.00;;;1.77;;
59468;SDS011;45277;52.768;18.262;2023-09-30T07:37:41;3.33;;;1.85;;
59468;SDS011;45277;52.768;18.262;2023-09-30T07:39:13;5.18;;;2.30;;
59468;SDS011;45277;52.768;18.262;2023-09-30T07:40:45;6.43;;;2.22;;
59468;SDS011;45277;52.768;18.262;2023-09-30T07:42:16;1.70;;;1.50;;
59468;SDS011;45277;52.768;18.262;2023-09-30T07:43:48;6.15;;;2.33;;
59468;SDS011;45277;52.768;18.262;2023-09-30T07:45:20;2.03;;;1.60;;
59468;SDS011;45277;52.768;18.262;2023-09-30T07:46:52;5.35;;;2.35;;
59468;SDS011;45277;52.768;18.262;2023-09-30T07:48:24;4.25;;;2.00;;
59468;SDS011;45277;52.768;18.262;2023-09-30T07:49:57;7.93;;;2.20;;
59468;SDS011;45277;52.768;18.262;2023-09-30T07:51:29;7.38;;;2.13;;
59468;SDS011;45277;52.768;18.262;2023-09-30T07:53:01;4.95;;;2.17;;
59468;SDS011;45277;52.768;18.262;2023-09-30T07:54:33;2.60;;;1.80;;
59468;SDS011;45277;52.768;18.262;2023-09-30T07:56:04;3.60;;;1.52;;
59468;SDS011;45277;52.768;18.262;2023-09-30T07:57:36;9.77;;;1.88;;
59468;SDS011;45277;52.768;18.262;2023-09-30T07:59:13;2.97;;;1.48;;
59468;SDS011;45277;52.768;18.262;2023-09-30T08:00:45;4.25;;;1.65;;
59468;SDS011;45277;52.768;18.262;2023-09-30T08:02:16;3.55;;;1.40;;
59468;SDS011;45277;52.768;18.262;2023-09-30T08:03:49;4.13;;;1.77;;
59468;SDS011;45277;52.768;18.262;2023-09-30T08:05:20;4.90;;;2.88;;
59468;SDS011;45277;52.768;18.262;2023-09-30T08:06:53;3.63;;;1.98;;
59468;SDS011;45277;52.768;18.262;2023-09-30T08:08:24;4.80;;;1.75;;
59468;SDS011;45277;52.768;18.262;2023-09-30T08:09:57;5.88;;;2.28;;
59468;SDS011;45277;52.768;18.262;2023-09-30T08:11:29;4.25;;;2.03;;
59468;SDS011;45277;52.768;18.262;2023-09-30T08:13:03;3.45;;;1.45;;
59468;SDS011;45277;52.768;18.262;2023-09-30T08:14:35;3.90;;;1.98;;
59468;SDS011;45277;52.768;18.262;2023-09-30T08:16:06;4.57;;;1.90;;
59468;SDS011;45277;52.768;18.262;2023-09-30T08:17:41;1.95;;;1.35;;
59468;SDS011;45277;52.768;18.262;2023-09-30T08:19:12;4.18;;;2.35;;
59468;SDS011;45277;52.768;18.262;2023-09-30T08:20:44;6.97;;;2.00;;
59468;SDS011;45277;52.768;18.262;2023-09-30T08:22:17;10.02;;;2.20;;
59468;SDS011;45277;52.768;18.262;2023-09-30T08:23:48;4.95;;;1.80;;
59468;SDS011;45277;52.768;18.262;2023-09-30T08:25:20;7.90;;;1.92;;
59468;SDS011;45277;52.768;18.262;2023-09-30T08:26:51;4.70;;;1.73;;
59468;SDS011;45277;52.768;18.262;2023-09-30T08:28:23;1.58;;;1.23;;
59468;SDS011;45277;52.768;18.262;2023-09-30T08:29:55;5.50;;;1.88;;
59468;SDS011;45277;52.768;18.262;2023-09-30T08:31:27;3.75;;;1.80;;
59468;SDS011;45277;52.768;18.262;2023-09-30T08:32:59;5.28;;;2.03;;
59468;SDS011;45277;52.768;18.262;2023-09-30T08:34:30;2.17;;;1.73;;
59468;SDS011;45277;52.768;18.262;2023-09-30T08:36:05;2.72;;;2.00;;
59468;SDS011;45277;52.768;18.262;2023-09-30T08:37:38;4.90;;;1.83;;
59468;SDS011;45277;52.768;18.262;2023-09-30T08:39:10;5.95;;;2.40;;
59468;SDS011;45277;52.768;18.262;2023-09-30T08:40:43;5.57;;;2.40;;
59468;SDS011;45277;52.768;18.262;2023-09-30T08:42:17;4.35;;;2.15;;
59468;SDS011;45277;52.768;18.262;2023-09-30T08:43:50;1.90;;;1.60;;
59468;SDS011;45277;52.768;18.262;2023-09-30T08:45:24;5.82;;;2.28;;
59468;SDS011;45277;52.768;18.262;2023-09-30T08:47:00;8.63;;;2.13;;
59468;SDS011;45277;52.768;18.262;2023-09-30T08:48:33;3.00;;;1.60;;
59468;SDS011;45277;52.768;18.262;2023-09-30T08:50:05;5.47;;;1.50;;
59468;SDS011;45277;52.768;18.262;2023-09-30T08:51:39;2.35;;;1.30;;
59468;SDS011;45277;52.768;18.262;2023-09-30T08:53:11;5.78;;;2.00;;
59468;SDS011;45277;52.768;18.262;2023-09-30T08:54:46;4.32;;;2.05;;
59468;SDS011;45277;52.768;18.262;2023-09-30T08:56:17;5.95;;;1.88;;
59468;SDS011;45277;52.768;18.262;2023-09-30T08:57:53;4.45;;;2.17;;
59468;SDS011;45277;52.768;18.262;2023-09-30T08:59:27;4.03;;;1.52;;
59468;SDS011;45277;52.768;18.262;2023-09-30T09:00:59;1.90;;;1.73;;
59468;SDS011;45277;52.768;18.262;2023-09-30T09:02:34;6.95;;;2.17;;
59468;SDS011;45277;52.768;18.262;2023-09-30T09:04:06;3.13;;;1.83;;